Home > Products > Valid Products > TAF

000
FTUS44 KSJT 020000 AAA
TAFABI
TAF AMD
KABI 020000Z 0200/0224 17011KT P6SM VCTS SCT050CB BKN200
     FM020200 17012KT P6SM SCT060
     FM020500 17013G21KT P6SM SCT250
     FM021400 22015G22KT P6SM SCT020
     FM022100 32016G23KT P6SM SCT250=



000
FTUS44 KSJT 012300
TAFJCT
TAF
KJCT 012324Z 0200/0224 17008KT P6SM FEW250
     FM020900 18006KT P6SM BKN015
     FM021600 19008KT P6SM FEW025=



000
FTUS44 KSJT 012300
TAFABI
TAF
KABI 012324Z 0200/0224 17011KT P6SM SCT070
     FM020500 17013G21KT P6SM SCT250
     FM021400 22015G22KT P6SM SCT020
     FM022100 32016G23KT P6SM SCT250=



000
FTUS44 KSJT 012300
TAFSJT
TAF
KSJT 012324Z 0200/0224 18010KT P6SM SCT200
     FM021200 19010G16KT P6SM BKN016
     FM021500 21013G20KT P6SM SCT025
     FM022100 27014G20KT P6SM SCT120=



000
FTUS44 KSJT 011700
TAFJCT
TAF
KJCT 011722Z 0118/0218 19011G17KT P6SM FEW050
     FM020000 17008KT P6SM FEW250
     FM020900 18006KT P6SM BKN015
     FM021600 19008KT P6SM FEW025=



000
FTUS44 KSJT 011700
TAFSJT
TAF
KSJT 011722Z 0118/0218 19013G19KT P6SM FEW070
     FM020000 18009KT P6SM SCT200
     FM021200 19010G16KT P6SM BKN016
     FM021500 21013G20KT P6SM SCT025=



000
FTUS44 KSJT 011700
TAFABI
TAF
KABI 011722Z 0118/0218 20014G22KT P6SM FEW060
     FM020000 17011KT P6SM SCT120
     FM020500 17013G21KT P6SM SCT250
     FM021400 22015G22KT P6SM SCT020=



000
FTUS44 KSJT 011500 AAA
TAFABI
TAF AMD
KABI 011546Z 0116/0212 19014G19KT P6SM FEW025
     FM011800 19014G22KT P6SM FEW060
     FM012300 17011KT P6SM SCT250
     FM020400 17013G22KT P6SM SCT250=



000
FTUS44 KSJT 011500 AAA
TAFJCT
TAF AMD
KJCT 011542Z 0116/0212 17010KT P6SM BKN020
     FM011600 19011G17KT P6SM SCT050
     FM012300 17009KT P6SM FEW250
     FM021000 17004KT P6SM BKN015=



000
FTUS44 KSJT 011100
TAFJCT
TAF
KJCT 011140Z 0112/0212 17005KT P6SM OVC015
     FM011700 19011G17KT P6SM SCT050
     FM012300 17009KT P6SM FEW250
     FM021000 17004KT P6SM BKN015=



000
FTUS44 KSJT 011100
TAFABI
TAF
KABI 011140Z 0112/0212 18011KT P6SM SKC
     FM011400 20014G22KT P6SM FEW120
     FM012300 17011KT P6SM SCT250
     FM020400 17013G22KT P6SM SCT250=



000
FTUS44 KSJT 011100
TAFSJT
TAF
KSJT 011140Z 0112/0212 19010KT P6SM SCT015
      TEMPO 0112/0114 BKN015
     FM011500 19013G20KT P6SM FEW120
     FM012300 18010KT P6SM SCT250
     FM021100 19010KT P6SM SCT015=



000
FTUS44 KSJT 010500
TAFJCT
TAF
KJCT 010520Z 0106/0206 18007KT P6SM FEW250
     FM011000 VRB03KT P6SM BKN015
     FM011700 18011G18KT P6SM FEW100
     FM020000 18008KT P6SM SKC=



000
FTUS44 KSJT 010500
TAFSJT
TAF
KSJT 010520Z 0106/0206 18009KT P6SM SCT200
     FM011500 18013G20KT P6SM FEW120
     FM020000 19010KT P6SM SKC=



000
FTUS44 KSJT 010500
TAFABI
TAF
KABI 010520Z 0106/0206 17011KT P6SM SCT100
     FM011400 19014G21KT P6SM FEW120
     FM020000 17011KT P6SM SKC=



000
FTUS44 KSJT 302300
TAFJCT
TAF
KJCT 302320Z 0100/0124 18007KT P6SM FEW250
     FM011000 VRB03KT P6SM BKN015
     FM011700 18008KT P6SM FEW100=



000
FTUS44 KSJT 302300
TAFABI
TAF
KABI 302320Z 0100/0124 17011KT P6SM SCT100
     FM011400 19014G21KT P6SM FEW120=



000
FTUS44 KSJT 302300
TAFSJT
TAF
KSJT 302320Z 0100/0124 17009KT P6SM SCT200
     FM011500 18013G20KT P6SM FEW120=



000
FTUS44 KSJT 301700
TAFJCT
TAF
KJCT 301720Z 3018/0118 17008KT P6SM SCT050
     FM010200 14004KT P6SM FEW250
     FM011000 VRB03KT P6SM SCT015
     FM011600 18007KT P6SM FEW120=



000
FTUS44 KSJT 301700
TAFABI
TAF
KABI 301720Z 3018/0118 17012G19KT P6SM SCT050
     FM010000 16010KT P6SM SCT100
     FM011400 20014G21KT P6SM FEW120=



000
FTUS44 KSJT 301700
TAFSJT
TAF
KSJT 301720Z 3018/0118 18012G17KT P6SM SCT060
     FM010000 17010KT P6SM SCT200
     FM011500 19013G20KT P6SM FEW120=



000
FTUS44 KSJT 301100
TAFJCT
TAF
KJCT 301129Z 3012/0112 VRB03KT P6SM SKC
     FM301500 17008KT P6SM SCT040
     FM010200 VRB03KT P6SM FEW250=



000
FTUS44 KSJT 301100
TAFSJT
TAF
KSJT 301129Z 3012/0112 18006KT P6SM SKC
     FM301600 18011G17KT P6SM SCT050
     FM302300 17010KT P6SM SCT250=



000
FTUS44 KSJT 301100
TAFABI
TAF
KABI 301129Z 3012/0112 16010KT P6SM FEW250
     FM301700 17012G19KT P6SM SCT050
     FM010000 16010KT P6SM BKN250=



000
FTUS44 KSJT 300500
TAFABI
TAF
KABI 300520Z 3006/0106 15006KT P6SM SCT250
     FM301500 18012G19KT P6SM SCT050
     FM010000 16011KT P6SM FEW060 BKN250=



000
FTUS44 KSJT 300500
TAFSJT
TAF
KSJT 300520Z 3006/0106 15004KT P6SM FEW250
      TEMPO 3012/3015 SCT040
     FM301500 18011G18KT P6SM SCT050
     FM010000 17010KT P6SM SCT250=



000
FTUS44 KSJT 300500
TAFJCT
TAF
KJCT 300520Z 3006/0106 VRB03KT P6SM FEW250
     FM301600 18007KT P6SM SCT040=



000
FTUS44 KSJT 292300
TAFABI
TAF
KABI 292331Z 3000/3024 15006KT P6SM SCT250
     FM301500 18012G19KT P6SM SCT050=



000
FTUS44 KSJT 292300
TAFJCT
TAF
KJCT 292331Z 3000/3024 VRB03KT P6SM SKC
     FM301600 18007KT P6SM SCT040=



000
FTUS44 KSJT 292300
TAFSJT
TAF
KSJT 292331Z 3000/3024 12007KT P6SM FEW070
     FM300100 15004KT P6SM FEW250
     FM301500 18011G18KT P6SM SCT050=



000
FTUS44 KSJT 291700
TAFSJT
TAF
KSJT 291720Z 2918/3018 11006KT P6SM SCT050
     FM300000 14004KT P6SM SKC=



000
FTUS44 KSJT 291700
TAFABI
TAF
KABI 291720Z 2918/3018 12008KT P6SM SCT050
     FM300000 15006KT P6SM SKC=



000
FTUS44 KSJT 291700
TAFJCT
TAF
KJCT 291720Z 2918/3018 10005KT P6SM BKN050
     FM300000 VRB03KT P6SM SKC=



000
FTUS44 KSJT 291100
TAFABI
TAF
KABI 291125Z 2912/3012 15007KT P6SM SKC=



000
FTUS44 KSJT 291100
TAFSJT
TAF
KSJT 291125Z 2912/3012 15006KT P6SM SKC=



000
FTUS44 KSJT 291100
TAFJCT
TAF
KJCT 291125Z 2912/3012 VRB04KT P6SM FEW030
     FM291500 13005KT P6SM SKC=



000
FTUS44 KSJT 290500
TAFJCT
TAF
KJCT 290520Z 2906/3006 VRB06KT P6SM SKC=



000
FTUS44 KSJT 290500
TAFABI
TAF
KABI 290520Z 2906/3006 VRB06KT P6SM SKC=



000
FTUS44 KSJT 290500
TAFSJT
TAF
KSJT 290520Z 2906/3006 VRB06KT P6SM SKC=



    US Dept of Commerce
    National Oceanic and Atmospheric Administration
    National Weather Service
    1325 East West Highway
    Silver Spring, MD 20910
    Page Author: NWS Internet Services Team
Disclaimer
Information Quality
Credits
Glossary
Privacy Policy
Freedom of Information Act (FOIA)
About Us
Career Opportunities